Time;durP1;ratioP1;P1;durP2;ratioP2;P2;SDS_P1;SDS_P2;PMS_P1;PMS_P2;Temp;Humidity;BMP_temperature;BMP_pressure;BME280_temperature;BME280_humidity;BME280_pressure;Samples;Min_cycle;Max_cycle;Signal;HPM_P1;HPM_P2
2021/08/01 00:00:49;;;;;;;7.88;3.40;;;;;;;16.29;83.82;95560.06;5071929;28;20037;-78
2021/08/01 00:03:15;;;;;;;6.60;3.33;;;;;;;16.20;86.90;95554.19;5075669;28;20025;-78
2021/08/01 00:05:45;;;;;;;6.00;2.85;;;;;;;16.27;86.78;95557.63;5080837;28;20400;-78
2021/08/01 00:08:11;;;;;;;9.45;3.80;;;;;;;16.22;87.70;95568.84;5058125;28;20111;-78
2021/08/01 00:10:37;;;;;;;6.32;3.55;;;;;;;16.20;89.17;95560.31;5058177;28;20519;-78
2021/08/01 00:13:03;;;;;;;7.82;3.58;;;;;;;16.15;90.57;95559.31;5075770;28;20025;-78
2021/08/01 00:15:29;;;;;;;7.93;3.55;;;;;;;15.90;92.01;95561.84;5069704;28;20393;-78
2021/08/01 00:17:55;;;;;;;7.93;4.05;;;;;;;15.65;90.22;95561.66;5078462;28;20074;-77
2021/08/01 00:20:20;;;;;;;7.60;3.85;;;;;;;15.83;92.71;95563.69;5075791;28;20025;-78
2021/08/01 00:22:46;;;;;;;7.75;4.07;;;;;;;15.75;90.71;95568.19;5069469;28;20052;-78
2021/08/01 00:25:12;;;;;;;8.57;3.70;;;;;;;15.63;91.34;95564.53;5067793;28;20016;-78
2021/08/01 00:27:39;;;;;;;6.68;3.60;;;;;;;15.57;91.28;95562.72;5075394;28;20044;-78
2021/08/01 00:30:08;;;;;;;9.83;3.83;;;;;;;15.72;92.65;95565.94;5083183;28;20043;-77
2021/08/01 00:32:34;;;;;;;9.17;4.00;;;;;;;15.60;93.66;95564.13;5061596;28;20020;-78
2021/08/01 00:35:00;;;;;;;7.20;3.70;;;;;;;15.61;95.11;95563.91;5081546;28;20031;-77
2021/08/01 00:37:25;;;;;;;12.33;3.97;;;;;;;15.44;94.40;95573.31;5085640;28;20064;-78
2021/08/01 00:39:51;;;;;;;7.83;3.97;;;;;;;15.35;94.36;95566.59;5078803;28;20145;-78
2021/08/01 00:42:18;;;;;;;6.63;3.47;;;;;;;15.48;96.83;95569.25;5078594;28;20047;-77
2021/08/01 00:44:44;;;;;;;8.47;4.13;;;;;;;15.45;95.70;95577.59;5073405;28;20044;-78
2021/08/01 00:47:11;;;;;;;6.43;3.87;;;;;;;15.33;95.26;95572.94;5069549;28;20033;-78
2021/08/01 00:49:37;;;;;;;7.83;3.87;;;;;;;15.18;94.94;95577.59;5076469;28;20036;-78
2021/08/01 00:52:05;;;;;;;8.87;4.17;;;;;;;15.24;98.37;95582.09;5057302;28;20036;-77
2021/08/01 00:54:32;;;;;;;8.00;4.27;;;;;;;15.16;98.30;95584.16;5077784;28;20028;-78
2021/08/01 00:57:01;;;;;;;7.53;3.77;;;;;;;15.00;97.29;95588.00;5077589;28;20028;-78
2021/08/01 00:59:27;;;;;;;7.77;3.97;;;;;;;15.01;98.08;95595.72;5070885;28;20063;-78
2021/08/01 01:02:03;;;;;;;6.70;3.83;;;;;;;14.94;97.15;95589.63;5069018;28;20069;-78
2021/08/01 01:04:42;;;;;;;8.93;4.47;;;;;;;14.86;98.68;95592.47;5079145;28;20342;-78
2021/08/01 01:07:31;;;;;;;8.93;4.80;;;;;;;14.86;100.00;95597.75;5072886;28;20040;-78
2021/08/01 01:10:03;;;;;;;8.73;4.73;;;;;;;14.94;100.00;95592.25;5070145;28;20481;-78
2021/08/01 01:13:14;;;;;;;12.27;6.00;;;;;;;14.94;100.00;95600.22;5075257;28;20031;-78
2021/08/01 01:15:47;;;;;;;11.93;6.10;;;;;;;14.81;100.00;95602.84;5067451;28;20566;-78
2021/08/01 01:18:34;;;;;;;11.27;5.47;;;;;;;14.99;100.00;95597.78;5067401;28;20039;-77
2021/08/01 01:21:04;;;;;;;9.20;6.07;;;;;;;15.03;100.00;95596.34;5067303;28;20311;-78
2021/08/01 01:23:47;;;;;;;9.37;5.97;;;;;;;15.06;100.00;95606.53;5053393;28;20079;-78
2021/08/01 01:26:46;;;;;;;9.53;6.23;;;;;;;15.17;100.00;95597.19;5066983;28;20037;-78
2021/08/01 01:29:18;;;;;;;12.37;5.67;;;;;;;14.98;100.00;95595.31;5076349;28;20125;-78
2021/08/01 01:31:49;;;;;;;9.83;5.13;;;;;;;15.00;100.00;95590.66;5067182;28;20033;-78
2021/08/01 01:34:31;;;;;;;10.10;5.40;;;;;;;15.07;100.00;95602.88;5070897;28;20024;-78
2021/08/01 01:37:00;;;;;;;9.50;5.67;;;;;;;15.00;100.00;95598.59;5063852;28;20035;-78
2021/08/01 01:39:27;;;;;;;8.73;5.80;;;;;;;14.89;100.00;95589.41;5080553;28;20091;-78
2021/08/01 01:42:19;;;;;;;7.70;5.47;;;;;;;14.91;100.00;95582.06;5069461;28;20036;-78
2021/08/01 01:44:55;;;;;;;9.73;5.37;;;;;;;14.93;100.00;95585.34;5068391;28;20029;-78
2021/08/01 01:47:22;;;;;;;8.23;5.57;;;;;;;14.89;100.00;95589.41;5061002;28;20062;-77
2021/08/01 01:49:53;;;;;;;10.53;5.57;;;;;;;14.83;100.00;95591.03;5076160;28;20033;-78
2021/08/01 01:52:22;;;;;;;9.68;6.03;;;;;;;14.72;100.00;95594.28;5072594;28;20093;-78
2021/08/01 01:55:06;;;;;;;10.50;6.30;;;;;;;14.77;100.00;95591.84;5063719;28;20099;-78
2021/08/01 01:57:37;;;;;;;10.73;6.47;;;;;;;14.70;100.00;95587.56;5085013;28;20047;-78
2021/08/01 02:00:04;;;;;;;10.97;6.33;;;;;;;14.74;100.00;95586.13;5076009;28;20060;-78
2021/08/01 02:02:43;;;;;;;8.83;5.80;;;;;;;14.64;100.00;95591.81;5086066;28;20044;-78
2021/08/01 02:05:13;;;;;;;12.53;6.67;;;;;;;14.72;100.00;95582.84;5076404;28;20116;-78
2021/08/01 02:08:17;;;;;;;9.87;5.63;;;;;;;14.77;100.00;95580.44;4961210;28;20042;-78
2021/08/01 02:11:23;;;;;;;11.00;5.97;;;;;;;14.67;100.00;95580.81;5067305;28;20111;-78
2021/08/01 02:14:06;;;;;;;10.43;6.23;;;;;;;14.68;100.00;95577.16;5067811;28;20028;-78
2021/08/01 02:16:34;;;;;;;10.03;6.07;;;;;;;14.71;100.00;95571.47;5050893;28;20029;-78
2021/08/01 02:19:07;;;;;;;9.70;6.93;;;;;;;14.62;100.00;95572.69;5062533;28;20517;-78
2021/08/01 02:21:34;;;;;;;10.60;6.27;;;;;;;14.55;100.00;95577.13;5072802;28;20024;-78
2021/08/01 02:24:03;;;;;;;8.90;6.13;;;;;;;14.53;100.00;95573.88;5075918;28;20078;-78
2021/08/01 02:26:35;;;;;;;8.48;5.60;;;;;;;14.44;100.00;95567.09;5076634;28;20102;-78
2021/08/01 02:29:02;;;;;;;9.80;6.17;;;;;;;14.35;100.00;95569.09;5079376;28;20043;-78
2021/08/01 02:31:29;;;;;;;7.90;5.60;;;;;;;14.23;100.00;95573.34;5073163;28;20584;-77
2021/08/01 02:33:55;;;;;;;14.60;6.33;;;;;;;14.17;100.00;95561.72;5079132;28;20038;-77
2021/08/01 02:36:23;;;;;;;9.03;5.53;;;;;;;14.07;100.00;95556.00;5079773;28;20376;-78
2021/08/01 02:38:54;;;;;;;11.53;6.57;;;;;;;14.12;100.00;95558.88;5078232;28;20060;-78
2021/08/01 02:41:31;;;;;;;10.47;6.57;;;;;;;14.03;100.00;95552.94;5052230;28;20470;-78
2021/08/01 02:44:04;;;;;;;9.70;5.30;;;;;;;14.05;100.00;95560.66;5059767;28;20039;-78
2021/08/01 02:46:32;;;;;;;11.03;6.77;;;;;;;13.94;100.00;95559.38;5069064;28;20138;-78
2021/08/01 02:49:05;;;;;;;10.27;6.80;;;;;;;14.06;100.00;95554.38;5065347;28;20051;-78
2021/08/01 02:51:32;;;;;;;15.75;6.13;;;;;;;13.93;100.00;95557.75;5073236;28;20050;-78
2021/08/01 02:53:59;;;;;;;10.63;5.67;;;;;;;14.07;100.00;95553.34;5071115;28;20028;-78
2021/08/01 02:56:29;;;;;;;11.93;6.73;;;;;;;14.11;100.00;95552.75;5065438;28;20024;-77
2021/08/01 02:58:57;;;;;;;10.23;6.33;;;;;;;14.17;100.00;95552.97;5083071;28;20110;-78
2021/08/01 03:01:22;;;;;;;9.20;6.73;;;;;;;14.11;100.00;95554.56;5065505;28;20089;-78
2021/08/01 03:03:49;;;;;;;8.53;5.37;;;;;;;14.06;100.00;95554.38;5079963;28;20037;-78
2021/08/01 03:06:15;;;;;;;9.87;6.30;;;;;;;14.09;100.00;95562.72;5077524;28;20024;-78
2021/08/01 03:08:42;;;;;;;11.77;6.50;;;;;;;13.90;100.00;95556.31;5082011;28;20086;-78
2021/08/01 03:11:08;;;;;;;10.43;6.47;;;;;;;14.04;100.00;95559.84;5072627;28;20041;-77
2021/08/01 03:13:34;;;;;;;10.53;6.40;;;;;;;13.89;100.00;95562.63;5080538;28;20081;-77
2021/08/01 03:15:59;;;;;;;9.57;6.27;;;;;;;13.95;100.00;95573.41;5083541;28;20027;-78
2021/08/01 03:18:25;;;;;;;8.97;6.37;;;;;;;13.95;100.00;95576.91;5056471;28;20161;-78
2021/08/01 03:20:52;;;;;;;10.67;6.67;;;;;;;13.88;100.00;95576.03;5080172;28;20024;-77
2021/08/01 03:23:23;;;;;;;10.63;7.07;;;;;;;13.82;100.00;95582.94;5073006;28;20048;-77
2021/08/01 03:26:07;;;;;;;13.10;6.00;;;;;;;13.68;100.00;95586.47;5076775;28;20094;-78
2021/08/01 03:28:37;;;;;;;8.83;6.30;;;;;;;13.71;100.00;95587.94;5066679;28;20693;-78
2021/08/01 03:31:03;;;;;;;10.43;6.67;;;;;;;13.72;100.00;95593.03;5065544;28;20059;-78
2021/08/01 03:33:35;;;;;;;9.80;7.20;;;;;;;13.70;100.00;95600.31;5080908;28;20036;-78
2021/08/01 03:36:01;;;;;;;10.63;6.50;;;;;;;13.74;100.00;95606.84;5068253;28;20055;-78
2021/08/01 03:38:53;;;;;;;11.23;7.10;;;;;;;13.76;100.00;95604.84;5061028;28;20029;-78
2021/08/01 03:41:44;;;;;;;9.57;6.27;;;;;;;13.77;100.00;95606.47;5072021;28;20115;-78
2021/08/01 03:44:17;;;;;;;10.68;5.85;;;;;;;13.64;100.00;95609.84;5071117;28;20028;-79
2021/08/01 03:46:43;;;;;;;9.33;5.87;;;;;;;13.69;100.00;95604.00;5067892;28;20083;-78
2021/08/01 03:49:08;;;;;;;11.70;6.17;;;;;;;13.74;100.00;95614.78;5061687;28;20373;-78
2021/08/01 03:51:34;;;;;;;8.70;5.80;;;;;;;13.55;100.00;95608.38;5081439;28;20078;-78
2021/08/01 03:54:00;;;;;;;9.23;5.60;;;;;;;13.65;100.00;95605.41;5080894;28;20032;-78
2021/08/01 03:56:26;;;;;;;12.50;7.07;;;;;;;13.60;100.00;95599.84;5066953;28;20025;-78
2021/08/01 03:58:52;;;;;;;10.07;6.77;;;;;;;13.60;100.00;95611.25;5073850;28;20637;-78
2021/08/01 04:01:18;;;;;;;10.33;6.50;;;;;;;13.57;100.00;95610.81;5081993;28;20036;-78
2021/08/01 04:03:43;;;;;;;9.57;6.10;;;;;;;13.57;100.00;95611.63;5090392;28;20035;-78
2021/08/01 04:06:09;;;;;;;10.20;6.20;;;;;;;13.44;100.00;95609.69;5057433;28;20048;-78
2021/08/01 04:08:35;;;;;;;8.07;5.37;;;;;;;13.58;100.00;95610.63;5069421;28;20116;-78
2021/08/01 04:11:04;;;;;;;8.47;6.00;;;;;;;13.60;100.00;95615.72;5078163;28;20028;-78
2021/08/01 04:13:30;;;;;;;9.80;5.47;;;;;;;13.59;100.00;95612.25;5074436;28;20028;-78
2021/08/01 04:15:57;;;;;;;9.63;6.00;;;;;;;13.63;100.00;95625.91;5062965;28;20141;-78
2021/08/01 04:18:23;;;;;;;9.90;5.70;;;;;;;13.53;100.00;95622.78;5079016;28;20036;-78
2021/08/01 04:20:49;;;;;;;9.73;5.00;;;;;;;13.59;100.00;95622.00;5080952;28;20025;-78
2021/08/01 04:23:15;;;;;;;10.03;5.30;;;;;;;13.59;100.00;95619.38;5081591;28;20075;-78
2021/08/01 04:25:40;;;;;;;10.80;5.70;;;;;;;13.52;100.00;95616.69;5085622;28;20020;-78
2021/08/01 04:28:06;;;;;;;7.33;5.20;;;;;;;13.61;100.00;95614.69;5082977;28;20036;-78
2021/08/01 04:30:32;;;;;;;11.03;5.80;;;;;;;13.58;100.00;95612.44;5065909;28;20401;-78
2021/08/01 04:32:57;;;;;;;11.37;5.57;;;;;;;13.53;100.00;95613.03;5067193;28;20055;-77
2021/08/01 04:35:23;;;;;;;10.83;6.13;;;;;;;13.48;100.00;95606.69;5059348;28;20832;-78
2021/08/01 04:37:49;;;;;;;11.33;5.87;;;;;;;13.52;100.00;95613.22;5062960;28;20038;-78
2021/08/01 04:40:15;;;;;;;10.07;5.60;;;;;;;13.44;100.00;95617.63;5062127;28;20666;-78
2021/08/01 04:42:40;;;;;;;7.90;5.13;;;;;;;13.49;100.00;95618.91;5074969;28;20381;-77
2021/08/01 04:45:06;;;;;;;8.80;5.80;;;;;;;13.48;100.00;95617.25;5069727;28;20033;-77
2021/08/01 04:47:32;;;;;;;7.50;4.57;;;;;;;13.54;100.00;95616.47;5061082;28;20020;-77
2021/08/01 04:49:58;;;;;;;8.10;5.23;;;;;;;13.44;100.00;95617.63;5064575;28;20028;-78
2021/08/01 04:52:23;;;;;;;7.23;4.97;;;;;;;13.37;100.00;95619.41;5071149;28;20090;-77
2021/08/01 04:54:49;;;;;;;8.20;5.50;;;;;;;13.41;100.00;95617.19;5081255;28;20036;-78
2021/08/01 04:57:15;;;;;;;8.13;5.37;;;;;;;13.44;100.00;95616.81;5052900;28;20024;-78
2021/08/01 04:59:40;;;;;;;9.20;5.83;;;;;;;13.53;100.00;95612.22;5078189;28;20115;-78
2021/08/01 05:02:06;;;;;;;10.30;5.70;;;;;;;13.44;100.00;95620.25;5077232;28;20024;-77
2021/08/01 05:04:32;;;;;;;9.10;5.43;;;;;;;13.47;100.00;95623.53;5062072;28;20523;-77
2021/08/01 05:06:58;;;;;;;9.60;5.73;;;;;;;13.42;100.00;95624.13;5072210;28;20016;-77
2021/08/01 05:09:23;;;;;;;9.53;6.23;;;;;;;13.46;100.00;95624.56;5070902;28;20024;-77
2021/08/01 05:11:49;;;;;;;8.93;6.17;;;;;;;13.43;100.00;95620.47;5086740;28;20031;-77
2021/08/01 05:14:15;;;;;;;9.77;6.77;;;;;;;13.44;100.00;95627.38;5052602;28;20028;-78
2021/08/01 05:16:41;;;;;;;12.20;7.00;;;;;;;13.47;100.00;95631.47;5069278;28;20113;-77
2021/08/01 05:19:07;;;;;;;9.47;6.57;;;;;;;13.38;100.00;95628.13;5071366;28;20024;-78
2021/08/01 05:21:32;;;;;;;10.93;6.17;;;;;;;13.48;100.00;95631.28;5086333;28;20389;-77
2021/08/01 05:23:58;;;;;;;12.27;6.90;;;;;;;13.44;100.00;95628.19;5070400;28;20132;-77
2021/08/01 05:26:24;;;;;;;9.17;6.87;;;;;;;13.55;100.00;95631.34;5073203;28;20054;-78
2021/08/01 05:28:50;;;;;;;8.97;6.57;;;;;;;13.51;100.00;95622.94;5070648;28;20021;-77
2021/08/01 05:31:15;;;;;;;10.03;6.23;;;;;;;13.48;100.00;95617.25;5079145;28;20050;-78
2021/08/01 05:33:41;;;;;;;9.93;7.87;;;;;;;13.57;100.00;95621.38;5080339;28;20471;-77
2021/08/01 05:36:08;;;;;;;10.07;6.63;;;;;;;13.60;100.00;95618.34;5056856;28;20029;-78
2021/08/01 05:38:38;;;;;;;8.87;6.83;;;;;;;13.62;100.00;95625.09;5077744;28;20567;-78
2021/08/01 05:41:05;;;;;;;9.63;6.57;;;;;;;13.77;100.00;95622.31;5076835;28;20543;-78
2021/08/01 05:43:31;;;;;;;8.80;6.40;;;;;;;13.78;100.00;95623.13;5077622;28;20126;-77
2021/08/01 05:45:58;;;;;;;9.73;6.77;;;;;;;13.85;100.00;95611.59;5086390;28;20080;-78
2021/08/01 05:48:24;;;;;;;6.83;5.40;;;;;;;13.70;100.00;95616.19;5079378;28;20036;-78
2021/08/01 05:50:50;;;;;;;9.13;6.67;;;;;;;13.85;100.00;95619.53;5079417;28;20016;-77
2021/08/01 05:53:20;;;;;;;8.97;5.63;;;;;;;13.82;100.00;95617.28;5053787;28;20025;-79
2021/08/01 05:55:47;;;;;;;9.47;5.90;;;;;;;13.96;100.00;95614.72;5078624;28;20104;-78
2021/08/01 05:58:12;;;;;;;8.77;5.97;;;;;;;13.97;100.00;95614.50;5072686;28;20464;-78
2021/08/01 06:00:38;;;;;;;11.70;6.40;;;;;;;13.98;100.00;95607.38;5086472;28;20055;-78
2021/08/01 06:03:04;;;;;;;13.13;5.70;;;;;;;14.20;100.00;95616.06;5063982;28;20105;-78
2021/08/01 06:05:30;;;;;;;9.57;5.87;;;;;;;14.15;100.00;95619.25;5076335;28;20101;-78
2021/08/01 06:07:56;;;;;;;11.17;6.17;;;;;;;14.22;100.00;95620.13;5087538;28;20032;-77
2021/08/01 06:10:21;;;;;;;7.87;5.27;;;;;;;14.21;100.00;95634.34;5078492;28;20125;-77
2021/08/01 06:12:47;;;;;;;8.77;6.40;;;;;;;14.26;100.00;95631.94;5073320;28;20130;-77
2021/08/01 06:15:13;;;;;;;9.97;5.50;;;;;;;14.24;100.00;95633.97;5069513;28;20441;-77
2021/08/01 06:17:38;;;;;;;16.73;11.80;;;;;;;14.27;100.00;95632.75;5077647;28;20405;-77
2021/08/01 06:20:05;;;;;;;9.43;7.13;;;;;;;14.38;100.00;95629.53;5077826;28;20778;-78
2021/08/01 06:22:30;;;;;;;9.40;7.83;;;;;;;14.46;100.00;95637.31;5056694;28;20024;-77
2021/08/01 06:24:56;;;;;;;9.20;6.63;;;;;;;14.41;100.00;95638.91;5086183;28;20075;-76
2021/08/01 06:27:22;;;;;;;18.33;14.97;;;;;;;14.47;100.00;95638.94;5087209;28;20081;-77
2021/08/01 06:29:47;;;;;;;11.77;8.47;;;;;;;14.63;100.00;95647.59;5062898;28;20502;-78
2021/08/01 06:32:13;;;;;;;7.67;5.63;;;;;;;14.59;100.00;95647.16;5082830;28;20111;-77
2021/08/01 06:34:39;;;;;;;7.43;5.73;;;;;;;14.41;100.00;95646.84;5063359;28;21018;-78
2021/08/01 06:37:04;;;;;;;10.23;5.47;;;;;;;14.48;100.00;95650.34;5073513;28;20044;-77
2021/08/01 06:39:30;;;;;;;8.97;5.93;;;;;;;14.56;100.00;95658.16;5076873;28;20662;-78
2021/08/01 06:41:56;;;;;;;8.17;5.33;;;;;;;14.32;100.00;95657.63;5063264;28;20074;-78
2021/08/01 06:44:21;;;;;;;9.40;5.63;;;;;;;14.39;100.00;95655.81;5076261;28;20529;-78
2021/08/01 06:46:47;;;;;;;7.20;4.80;;;;;;;14.44;100.00;95651.75;5079070;28;20095;-78
2021/08/01 06:49:13;;;;;;;8.57;5.97;;;;;;;14.35;100.00;95651.94;5066673;28;20029;-78
2021/08/01 06:51:38;;;;;;;6.53;5.10;;;;;;;14.32;100.00;95643.56;5081933;28;20039;-78
2021/08/01 06:54:04;;;;;;;8.00;5.53;;;;;;;14.23;100.00;95632.34;5073509;28;20806;-78
2021/08/01 06:56:30;;;;;;;9.10;4.90;;;;;;;14.27;100.00;95641.50;5082533;28;20039;-78
2021/08/01 06:58:56;;;;;;;8.23;5.67;;;;;;;14.36;100.00;95636.88;5072211;28;20072;-77
2021/08/01 07:01:22;;;;;;;8.73;5.20;;;;;;;14.28;100.00;95639.66;5081551;28;20529;-78
2021/08/01 07:03:48;;;;;;;8.13;5.80;;;;;;;14.45;100.00;95640.16;5076981;28;20036;-78
2021/08/01 07:06:14;;;;;;;7.47;5.40;;;;;;;14.54;100.00;95644.28;5057985;28;20663;-77
2021/08/01 07:08:39;;;;;;;10.07;5.30;;;;;;;14.54;100.00;95647.75;5083084;28;20035;-78
2021/08/01 07:11:05;;;;;;;7.20;5.60;;;;;;;14.45;100.00;95650.72;5088708;28;20032;-78
2021/08/01 07:13:31;;;;;;;8.63;6.03;;;;;;;14.49;100.00;95652.00;5069651;28;20033;-78
2021/08/01 07:16:03;;;;;;;12.03;5.80;;;;;;;14.55;100.00;95640.63;5073190;28;20060;-77
2021/08/01 07:18:30;;;;;;;9.27;5.78;;;;;;;14.81;100.00;95646.00;5080322;28;20032;-78
2021/08/01 07:20:57;;;;;;;8.03;5.67;;;;;;;15.05;100.00;95643.81;5085370;28;20050;-78
2021/08/01 07:23:23;;;;;;;6.37;5.27;;;;;;;15.19;100.00;95648.13;5079391;28;20057;-78
2021/08/01 07:25:49;;;;;;;8.30;5.77;;;;;;;15.25;100.00;95651.78;5070427;28;20032;-77
2021/08/01 07:28:15;;;;;;;9.17;5.20;;;;;;;15.43;100.00;95643.25;5079473;28;20479;-78
2021/08/01 07:30:40;;;;;;;8.30;5.57;;;;;;;15.29;100.00;95651.19;5082361;28;20071;-78
2021/08/01 07:33:06;;;;;;;8.60;5.23;;;;;;;15.49;100.00;95650.34;5081721;28;20039;-78
2021/08/01 07:35:32;;;;;;;7.90;5.63;;;;;;;15.40;100.00;95657.72;5079437;28;20060;-78
2021/08/01 07:37:58;;;;;;;7.77;5.13;;;;;;;15.44;100.00;95661.56;5077278;28;20023;-78
2021/08/01 07:40:23;;;;;;;8.85;5.65;;;;;;;15.49;100.00;95655.66;5082844;28;20036;-79
2021/08/01 07:42:49;;;;;;;8.93;5.50;;;;;;;15.41;100.00;95658.53;5088249;28;20037;-78
2021/08/01 07:45:34;;;;;;;8.87;5.27;;;;;;;15.55;100.00;95660.16;5084085;28;20036;-77
2021/08/01 07:48:00;;;;;;;7.18;5.15;;;;;;;15.86;100.00;95651.59;5089586;28;20033;-78
2021/08/01 07:50:27;;;;;;;6.35;4.60;;;;;;;15.89;100.00;95651.16;5076574;28;20053;-78
2021/08/01 07:52:53;;;;;;;8.77;5.77;;;;;;;16.23;100.00;95652.75;5070249;28;20028;-78
2021/08/01 07:55:19;;;;;;;9.27;5.90;;;;;;;16.13;100.00;95664.78;5076737;28;20044;-78
2021/08/01 07:57:45;;;;;;;6.95;4.53;;;;;;;16.03;100.00;95660.75;5082493;28;20040;-78
2021/08/01 08:00:13;;;;;;;6.35;4.80;;;;;;;16.05;100.00;95665.84;5082005;28;20040;-80
2021/08/01 08:02:39;;;;;;;8.30;5.20;;;;;;;15.94;100.00;95671.78;5081674;28;20048;-79
2021/08/01 08:05:06;;;;;;;7.88;4.32;;;;;;;16.09;100.00;95672.34;5055066;28;20070;-79
2021/08/01 08:07:31;;;;;;;5.32;3.97;;;;;;;16.30;100.00;95668.66;5080474;28;20051;-78
2021/08/01 08:09:57;;;;;;;7.60;4.55;;;;;;;16.26;100.00;95672.72;5081725;28;20032;-77
2021/08/01 08:12:23;;;;;;;6.78;3.90;;;;;;;16.17;100.00;95682.75;5079628;28;20036;-77
2021/08/01 08:14:49;;;;;;;9.00;5.38;;;;;;;16.20;100.00;95676.22;5087991;28;20028;-77
2021/08/01 08:17:15;;;;;;;7.88;4.25;;;;;;;16.15;100.00;95674.19;5078461;28;20162;-77
2021/08/01 08:19:41;;;;;;;7.20;4.47;;;;;;;16.22;100.00;95677.63;5076515;28;20016;-77
2021/08/01 08:22:09;;;;;;;6.22;4.32;;;;;;;16.31;100.00;95683.53;5072586;28;20020;-77
2021/08/01 08:24:35;;;;;;;6.57;4.22;;;;;;;16.44;100.00;95682.69;5071242;28;20040;-77
2021/08/01 08:27:01;;;;;;;5.50;3.83;;;;;;;16.40;99.75;95676.97;5064944;28;20020;-77
2021/08/01 08:29:27;;;;;;;8.85;5.20;;;;;;;16.68;99.16;95678.50;5074637;28;20056;-77
2021/08/01 08:31:54;;;;;;;8.57;4.93;;;;;;;16.46;98.93;95684.13;5065779;28;20343;-77
2021/08/01 08:34:21;;;;;;;11.95;8.05;;;;;;;16.50;98.00;95689.81;5075562;28;20548;-78
2021/08/01 08:36:49;;;;;;;8.18;5.72;;;;;;;16.54;99.19;95688.38;5078636;28;20043;-77
2021/08/01 08:39:21;;;;;;;5.03;3.38;;;;;;;16.40;100.00;95681.47;5083556;28;20028;-77
2021/08/01 08:41:48;;;;;;;6.40;4.00;;;;;;;16.31;99.48;95678.22;5077681;28;20119;-77
2021/08/01 08:44:14;;;;;;;10.77;6.20;;;;;;;16.70;100.00;95668.50;5067481;28;20111;-77
2021/08/01 08:46:40;;;;;;;7.97;5.72;;;;;;;16.84;97.76;95663.97;5077194;28;20103;-77
2021/08/01 08:49:11;;;;;;;6.63;4.45;;;;;;;16.79;99.35;95674.41;5077460;28;20028;-77
2021/08/01 08:51:43;;;;;;;6.78;4.72;;;;;;;16.57;98.49;95677.34;5076130;28;20112;-77
2021/08/01 08:54:30;;;;;;;7.70;4.80;;;;;;;16.53;97.60;95677.94;5067679;28;20691;-78
2021/08/01 08:56:59;;;;;;;12.35;7.15;;;;;;;16.74;98.63;95675.00;5072511;28;20028;-77
2021/08/01 08:59:26;;;;;;;5.10;3.70;;;;;;;16.83;97.83;95684.38;5062476;28;20027;-77
2021/08/01 09:01:52;;;;;;;7.97;4.78;;;;;;;16.80;98.14;95690.13;5082594;28;20038;-77
2021/08/01 09:04:18;;;;;;;6.20;4.38;;;;;;;16.83;96.67;95689.69;5075095;28;20115;-78
2021/08/01 09:06:44;;;;;;;6.70;4.15;;;;;;;17.05;94.61;95694.72;5075963;28;20389;-77
2021/08/01 09:09:13;;;;;;;5.47;3.83;;;;;;;17.05;95.75;95705.34;5079628;28;20024;-78
2021/08/01 09:11:39;;;;;;;6.05;4.00;;;;;;;16.70;96.22;95706.50;5075093;28;20101;-77
2021/08/01 09:14:16;;;;;;;6.53;3.85;;;;;;;16.98;94.36;95705.38;5069412;28;20031;-77
2021/08/01 09:16:45;;;;;;;6.38;4.13;;;;;;;17.06;96.24;95707.75;5070596;28;20041;-77
2021/08/01 09:19:24;;;;;;;6.60;4.00;;;;;;;16.65;94.65;95711.59;5082216;28;20024;-77
2021/08/01 09:21:50;;;;;;;7.32;3.92;;;;;;;16.84;95.33;95701.97;5060370;28;20021;-78
2021/08/01 09:24:16;;;;;;;7.00;4.90;;;;;;;16.77;95.37;95708.31;5083960;28;20067;-77
2021/08/01 09:26:42;;;;;;;5.93;3.97;;;;;;;16.68;96.36;95710.38;5070866;28;20024;-77
2021/08/01 09:29:08;;;;;;;8.07;4.00;;;;;;;16.33;96.44;95717.81;5076758;28;20032;-77
2021/08/01 09:31:34;;;;;;;6.50;4.32;;;;;;;16.21;98.23;95715.81;5078879;28;20048;-77
2021/08/01 09:33:59;;;;;;;6.60;4.25;;;;;;;16.19;98.97;95724.97;5081681;28;20024;-79
2021/08/01 09:36:26;;;;;;;7.47;4.25;;;;;;;16.16;100.00;95728.03;5061085;28;20041;-77
2021/08/01 09:38:57;;;;;;;9.27;4.50;;;;;;;16.16;100.00;95726.22;5065139;28;20083;-76
2021/08/01 09:41:32;;;;;;;7.30;4.15;;;;;;;15.69;100.00;95736.03;5066492;28;20032;-76
2021/08/01 09:44:02;;;;;;;6.57;4.13;;;;;;;15.66;100.00;95727.63;5075036;28;20138;-77
2021/08/01 09:46:44;;;;;;;6.53;4.28;;;;;;;15.77;100.00;95735.03;5065980;28;20811;-77
2021/08/01 09:49:14;;;;;;;6.75;4.72;;;;;;;15.79;100.00;95739.09;5064668;28;20606;-77
2021/08/01 09:51:41;;;;;;;7.20;4.85;;;;;;;15.85;100.00;95726.84;5070011;28;20052;-77
2021/08/01 09:54:09;;;;;;;7.57;4.70;;;;;;;16.00;100.00;95729.31;5067489;28;20024;-77
2021/08/01 09:56:34;;;;;;;9.05;5.30;;;;;;;15.90;100.00;95728.91;5073485;28;20250;-77
2021/08/01 09:59:00;;;;;;;9.30;4.50;;;;;;;16.01;100.00;95718.47;5064621;28;20025;-77
2021/08/01 10:01:26;;;;;;;7.38;4.60;;;;;;;15.88;100.00;95728.28;5073218;28;20389;-77
2021/08/01 10:03:52;;;;;;;11.25;4.72;;;;;;;16.01;100.00;95709.72;5066060;28;20486;-77
2021/08/01 10:06:20;;;;;;;7.80;4.82;;;;;;;16.25;100.00;95711.69;5073336;28;20044;-77
2021/08/01 10:08:51;;;;;;;9.30;4.22;;;;;;;16.08;100.00;95709.72;5065290;28;20060;-77
2021/08/01 10:11:19;;;;;;;7.57;4.57;;;;;;;16.21;100.00;95717.66;5097336;28;20039;-78
2021/08/01 10:13:52;;;;;;;7.05;4.13;;;;;;;15.98;100.00;95707.47;5080294;28;20115;-78
2021/08/01 10:16:19;;;;;;;8.40;5.38;;;;;;;15.93;100.00;95715.25;5053165;28;20131;-78
2021/08/01 10:18:47;;;;;;;8.70;6.55;;;;;;;15.76;100.00;95712.16;5073189;28;20035;-78
2021/08/01 10:21:20;;;;;;;9.63;6.25;;;;;;;16.00;100.00;95708.91;5078990;28;20023;-78
2021/08/01 10:23:52;;;;;;;6.38;4.57;;;;;;;15.87;100.00;95711.56;5062796;28;20152;-77
2021/08/01 10:26:21;;;;;;;6.22;4.22;;;;;;;15.92;100.00;95713.59;5085643;28;20439;-78
2021/08/01 10:28:56;;;;;;;8.65;4.80;;;;;;;15.92;100.00;95713.59;5084920;28;20543;-78
2021/08/01 10:31:30;;;;;;;7.15;4.88;;;;;;;16.07;100.00;95714.19;5075647;28;20041;-78
2021/08/01 10:34:35;;;;;;;7.07;4.75;;;;;;;16.00;100.00;95724.00;5073098;28;20091;-78
2021/08/01 10:37:04;;;;;;;7.10;4.85;;;;;;;16.02;100.00;95716.63;5074735;28;20509;-78
2021/08/01 10:39:33;;;;;;;7.20;5.13;;;;;;;16.19;100.00;95709.06;5074043;28;20036;-78
2021/08/01 10:42:06;;;;;;;6.18;4.40;;;;;;;16.20;100.00;95708.88;5084624;28;20473;-79
2021/08/01 10:44:35;;;;;;;9.90;3.72;;;;;;;16.14;98.79;95703.59;5064787;28;20698;-78
2021/08/01 10:47:05;;;;;;;7.72;3.90;;;;;;;16.54;98.36;95709.59;5076490;28;20030;-78
2021/08/01 10:49:35;;;;;;;8.13;4.55;;;;;;;16.75;97.55;95703.22;5067007;28;20033;-78
2021/08/01 10:52:08;;;;;;;6.90;4.05;;;;;;;17.02;97.10;95705.75;5080335;28;20024;-79
2021/08/01 10:54:34;;;;;;;6.97;4.13;;;;;;;17.28;94.73;95702.13;5069766;28;20040;-78
2021/08/01 10:57:16;;;;;;;6.30;3.92;;;;;;;17.70;92.48;95703.25;5088353;28;20043;-79
2021/08/01 10:59:45;;;;;;;9.02;3.80;;;;;;;17.70;90.39;95697.13;5083257;28;20028;-79
2021/08/01 11:02:14;;;;;;;6.25;3.75;;;;;;;17.43;89.45;95695.47;5086631;28;20022;-77
2021/08/01 11:04:40;;;;;;;6.72;3.72;;;;;;;17.77;90.24;95687.28;5079623;28;20064;-79
2021/08/01 11:07:06;;;;;;;6.72;4.13;;;;;;;17.76;93.59;95696.25;5055941;28;20028;-79
2021/08/01 11:09:32;;;;;;;7.05;4.47;;;;;;;17.40;91.27;95687.97;5057129;28;20062;-78
2021/08/01 11:12:19;;;;;;;8.32;4.53;;;;;;;17.23;90.42;95693.97;5071135;28;20512;-78
2021/08/01 11:14:49;;;;;;;13.70;8.90;;;;;;;17.32;92.38;95693.50;5079377;28;20039;-79
2021/08/01 11:17:21;;;;;;;6.63;3.90;;;;;;;17.85;90.01;95690.50;5070549;28;20032;-78
2021/08/01 11:19:47;;;;;;;6.53;3.58;;;;;;;17.94;88.04;95693.69;5071844;28;20028;-78
2021/08/01 11:22:41;;;;;;;6.35;4.20;;;;;;;18.33;87.61;95681.03;5068450;28;20048;-78
2021/08/01 11:25:20;;;;;;;7.38;3.90;;;;;;;18.35;85.59;95681.63;5076528;28;20050;-78
2021/08/01 11:28:10;;;;;;;5.65;3.42;;;;;;;18.06;85.65;95681.28;5074159;28;20047;-78
2021/08/01 11:30:51;;;;;;;6.22;4.03;;;;;;;17.99;85.80;95685.88;5074893;28;20043;-78
2021/08/01 11:33:38;;;;;;;7.72;3.53;;;;;;;18.88;84.60;95680.19;5075900;28;20035;-78